^^
Grace C. Lehan Memorial Weather Station Historical Data
Daily Summary for February 1, 2022 Units:  Both    English   Metric
Daily Weekly Monthly Yearly
  High: Low: Average:
Temperature: 67.1 °F /  19.5 °C 57.4 °F /  14.1 °C 60.9 °F /  16.1 °C
Dew Point: 63.3 °F /  17.4 °C 54.2 °F /  12.3 °C 58 °F /  14.4 °C
Humidity: 97% 80% 90%
Wind Speed: 3.4mph /  5.5km/h - 0.2mph /  0.3km/h
Wind Gust: 11mph /  17.7km/h - -
Wind- - WNW
Pressure: 30.01 in /  1016.1 hPa 29.90 in /  1012.4 hPa -
Precipitation: 0.00 in /  0 mm    
 
 
Tabular Data for February 1, 2022
Time Temperature Dew Point Pressure Wind Wind Speed Wind Gust Humidity Rainfall Rate (Hourly) solar
00:04 58.8 °F /  14.9 °C 54.3 °F /  12.4 °C 29.96in /  1014.4hPa Calm     85% 0.00in /  0mm 0 W/m2
00:09 58.8 °F /  14.9 °C 54.3 °F /  12.4 °C 29.96in /  1014.4hPa Calm   1mph /  1.6km/h 85% 0.00in /  0mm 0 W/m2
00:14 58.8 °F /  14.9 °C 54.3 °F /  12.4 °C 29.96in /  1014.4hPa Calm   1mph /  1.6km/h 85% 0.00in /  0mm 0 W/m2
00:19 58.8 °F /  14.9 °C 54.3 °F /  12.4 °C 29.96in /  1014.4hPa Calm   1mph /  1.6km/h 85% 0.00in /  0mm 0 W/m2
00:24 58.8 °F /  14.9 °C 54.3 °F /  12.4 °C 29.96in /  1014.4hPa Calm   1mph /  1.6km/h 85% 0.00in /  0mm 0 W/m2
00:29 58.7 °F /  14.8 °C 54.2 °F /  12.3 °C 29.96in /  1014.4hPa Calm   1mph /  1.6km/h 85% 0.00in /  0mm 0 W/m2
00:34 58.7 °F /  14.8 °C 54.2 °F /  12.3 °C 29.96in /  1014.4hPa Calm   1mph /  1.6km/h 85% 0.00in /  0mm 0 W/m2
00:39 58.7 °F /  14.8 °C 54.2 °F /  12.3 °C 29.96in /  1014.4hPa Calm     85% 0.00in /  0mm 0 W/m2
00:44 58.7 °F /  14.8 °C 54.5 °F /  12.5 °C 29.96in /  1014.4hPa Calm     85.9% 0.00in /  0mm 0 W/m2
00:49 58.6 °F /  14.8 °C 54.4 °F /  12.4 °C 29.96in /  1014.4hPa Calm     85.8% 0.00in /  0mm 0 W/m2
00:54 58.6 °F /  14.8 °C 54.3 °F /  12.4 °C 29.96in /  1014.4hPa Calm     85.7% 0.00in /  0mm 0 W/m2
00:59 58.6 °F /  14.8 °C 54.4 °F /  12.4 °C 29.96in /  1014.4hPa Calm     86% 0.00in /  0mm 0 W/m2
01:04 58.6 °F /  14.8 °C 54.4 °F /  12.4 °C 29.96in /  1014.4hPa Calm     86% 0.00in /  0mm 0 W/m2
01:09 58.5 °F /  14.7 °C 54.3 °F /  12.4 °C 29.96in /  1014.4hPa Calm     86% 0.00in /  0mm 0 W/m2
01:14 58.5 °F /  14.7 °C 54.3 °F /  12.4 °C 29.96in /  1014.4hPa Calm     86% 0.00in /  0mm 0 W/m2
01:19 58.5 °F /  14.7 °C 54.3 °F /  12.4 °C 29.96in /  1014.4hPa Calm     86% 0.00in /  0mm 0 W/m2
01:24 58.6 °F /  14.8 °C 54.4 °F /  12.4 °C 29.96in /  1014.4hPa Calm     86% 0.00in /  0mm 0 W/m2
01:29 58.6 °F /  14.8 °C 54.8 °F /  12.7 °C 29.96in /  1014.4hPa Calm     87% 0.00in /  0mm 0 W/m2
01:34 58.6 °F /  14.8 °C 54.8 °F /  12.7 °C 29.96in /  1014.4hPa Calm     87% 0.00in /  0mm 0 W/m2
01:39 58.6 °F /  14.8 °C 55 °F /  12.8 °C 29.96in /  1014.4hPa Calm     87.8% 0.00in /  0mm 0 W/m2
01:44 58.5 °F /  14.7 °C 55 °F /  12.8 °C 29.96in /  1014.4hPa Calm     88% 0.01in /  0.25mm 0 W/m2
01:49 58.5 °F /  14.7 °C 55.1 °F /  12.8 °C 29.96in /  1014.4hPa Calm     88.4% 0.01in /  0.25mm 0 W/m2
01:54 58.4 °F /  14.7 °C 55.2 °F /  12.9 °C 29.96in /  1014.4hPa Calm     89% 0.02in /  0.51mm 0 W/m2
01:59 58.3 °F /  14.6 °C 55.3 °F /  12.9 °C 29.96in /  1014.4hPa Calm     89.9% 0.03in /  0.76mm 0 W/m2
02:04 58.2 °F /  14.6 °C 55.3 °F /  12.9 °C 29.96in /  1014.4hPa Calm     90% 0.04in /  1.02mm 0 W/m2
02:09 58.2 °F /  14.6 °C 55.3 °F /  12.9 °C 29.96in /  1014.4hPa Calm   1mph /  1.6km/h 90.1% 0.04in /  1.02mm 0 W/m2
02:14 58.1 °F /  14.5 °C 55.4 °F /  13 °C 29.96in /  1014.4hPa Calm   1mph /  1.6km/h 91% 0.04in /  1.02mm 0 W/m2
02:19 58 °F /  14.4 °C 55.4 °F /  13 °C 29.96in /  1014.4hPa Calm   1mph /  1.6km/h 91% 0.04in /  1.02mm 0 W/m2
02:24 57.9 °F /  14.4 °C 55.3 °F /  12.9 °C 29.96in /  1014.4hPa Calm   1mph /  1.6km/h 91% 0.04in /  1.02mm 0 W/m2
02:29 57.8 °F /  14.3 °C 55.3 °F /  12.9 °C 29.97in /  1014.8hPa Calm   1mph /  1.6km/h 91.4% 0.04in /  1.02mm 0 W/m2
02:34 57.8 °F /  14.3 °C 55.5 °F /  13.1 °C 29.97in /  1014.8hPa Calm   1mph /  1.6km/h 92% 0.04in /  1.02mm 0 W/m2
02:39 57.7 °F /  14.3 °C 55.4 °F /  13 °C 29.97in /  1014.8hPa Calm     92% 0.04in /  1.02mm 0 W/m2
02:44 57.7 °F /  14.3 °C 55.4 °F /  13 °C 29.97in /  1014.8hPa Calm     92% 0.04in /  1.02mm 0 W/m2
02:49 57.7 °F /  14.3 °C 55.6 °F /  13.1 °C 29.97in /  1014.8hPa Calm     92.7% 0.04in /  1.02mm 0 W/m2
02:54 57.7 °F /  14.3 °C 55.7 °F /  13.2 °C 29.97in /  1014.8hPa Calm     93% 0.04in /  1.02mm 0 W/m2
02:59 57.7 °F /  14.3 °C 55.7 °F /  13.2 °C 29.96in /  1014.4hPa Calm     93% 0.04in /  1.02mm 0 W/m2
03:04 57.7 °F /  14.3 °C 55.7 °F /  13.2 °C 29.96in /  1014.4hPa Calm     93% 0.04in /  1.02mm 0 W/m2
03:09 57.7 °F /  14.3 °C 55.7 °F /  13.2 °C 29.96in /  1014.4hPa Calm     93% 0.02in /  0.51mm 0 W/m2
03:14 57.7 °F /  14.3 °C 55.7 °F /  13.2 °C 29.96in /  1014.4hPa Calm     93% 0.02in /  0.51mm 0 W/m2
03:19 57.7 °F /  14.3 °C 55.7 °F /  13.2 °C 29.96in /  1014.4hPa Calm     93% 0.03in /  0.76mm 0 W/m2
03:24 57.7 °F /  14.3 °C 55.7 °F /  13.2 °C 29.96in /  1014.4hPa Calm     93% 0.03in /  0.76mm 0 W/m2
03:29 57.7 °F /  14.3 °C 55.8 °F /  13.2 °C 29.96in /  1014.4hPa Calm     93.2% 0.03in /  0.76mm 0 W/m2
03:34 57.8 °F /  14.3 °C 56.1 °F /  13.4 °C 29.96in /  1014.4hPa Calm     94% 0.04in /  1.02mm 0 W/m2
03:39 57.8 °F /  14.3 °C 56.1 °F /  13.4 °C 29.96in /  1014.4hPa Calm     94% 0.05in /  1.27mm 0 W/m2
03:44 57.8 °F /  14.3 °C 56.1 °F /  13.4 °C 29.96in /  1014.4hPa Calm     94% 0.06in /  1.52mm 0 W/m2
03:49 57.9 °F /  14.4 °C 56.2 °F /  13.4 °C 29.96in /  1014.4hPa Calm     94% 0.07in /  1.78mm 0 W/m2
03:54 57.9 °F /  14.4 °C 56.2 °F /  13.4 °C 29.95in /  1014.1hPa Calm     94% 0.08in /  2.03mm 0 W/m2
03:59 58 °F /  14.4 °C 56.3 °F /  13.5 °C 29.96in /  1014.4hPa Calm     94% 0.09in /  2.29mm 0 W/m2
04:04 58 °F /  14.4 °C 56.3 °F /  13.5 °C 29.95in /  1014.1hPa Calm     94% 0.09in /  2.29mm 0 W/m2
04:09 58 °F /  14.4 °C 56.3 °F /  13.5 °C 29.95in /  1014.1hPa Calm     94% 0.10in /  2.54mm 0 W/m2
04:14 58 °F /  14.4 °C 56.3 °F /  13.5 °C 29.95in /  1014.1hPa Calm     94% 0.11in /  2.79mm 0 W/m2
04:19 58 °F /  14.4 °C 56.3 °F /  13.5 °C 29.95in /  1014.1hPa Calm     94% 0.12in /  3.05mm 0 W/m2
04:24 58 °F /  14.4 °C 56.3 °F /  13.5 °C 29.95in /  1014.1hPa Calm     94% 0.13in /  3.3mm 0 W/m2
04:29 58 °F /  14.4 °C 56.3 °F /  13.5 °C 29.95in /  1014.1hPa Calm     94% 0.13in /  3.3mm 0 W/m2
04:34 58 °F /  14.4 °C 56.3 °F /  13.5 °C 29.95in /  1014.1hPa Calm     94% 0.13in /  3.3mm 0 W/m2
04:39 58.1 °F /  14.5 °C 56.4 °F /  13.6 °C 29.95in /  1014.1hPa Calm     94.2% 0.11in /  2.79mm 0 W/m2
04:44 58 °F /  14.4 °C 56.6 °F /  13.7 °C 29.96in /  1014.4hPa Calm     95% 0.11in /  2.79mm 0 W/m2
04:49 58 °F /  14.4 °C 56.6 °F /  13.7 °C 29.96in /  1014.4hPa Calm     95% 0.11in /  2.79mm 0 W/m2
04:54 58 °F /  14.4 °C 56.6 °F /  13.7 °C 29.96in /  1014.4hPa Calm     95% 0.11in /  2.79mm 0 W/m2
04:59 58 °F /  14.4 °C 56.6 °F /  13.7 °C 29.95in /  1014.1hPa Calm     95% 0.11in /  2.79mm 0 W/m2
05:04 57.9 °F /  14.4 °C 56.5 °F /  13.6 °C 29.95in /  1014.1hPa Calm     95% 0.11in /  2.79mm 0 W/m2
05:09 58 °F /  14.4 °C 56.5 °F /  13.6 °C 29.95in /  1014.1hPa Calm     95% 0.00in /  0mm 0 W/m2
05:14 58 °F /  14.4 °C 56.6 °F /  13.7 °C 29.95in /  1014.1hPa Calm     95% 0.00in /  0mm 0 W/m2
05:19 58 °F /  14.4 °C 56.6 °F /  13.7 °C 29.96in /  1014.4hPa Calm     95% 0.00in /  0mm 0 W/m2
05:24 58 °F /  14.4 °C 56.6 °F /  13.7 °C 29.96in /  1014.4hPa Calm     95% 0.00in /  0mm 0 W/m2
05:29 58 °F /  14.4 °C 56.6 °F /  13.7 °C 29.95in /  1014.1hPa Calm     95% 0.00in /  0mm 0 W/m2
05:34 58.1 °F /  14.5 °C 56.7 °F /  13.7 °C 29.95in /  1014.1hPa Calm     95% 0.00in /  0mm 0 W/m2
05:39 58.1 °F /  14.5 °C 56.7 °F /  13.7 °C 29.95in /  1014.1hPa Calm     95% 0.00in /  0mm 0 W/m2
05:44 58.1 °F /  14.5 °C 56.6 °F /  13.7 °C 29.95in /  1014.1hPa Calm     95% 0.00in /  0mm 0 W/m2
05:49 58 °F /  14.4 °C 56.6 °F /  13.7 °C 29.95in /  1014.1hPa Calm     95% 0.00in /  0mm 0 W/m2
05:54 57.9 °F /  14.4 °C 56.5 °F /  13.6 °C 29.95in /  1014.1hPa Calm     95% 0.00in /  0mm 0 W/m2
05:59 57.9 °F /  14.4 °C 56.5 °F /  13.6 °C 29.95in /  1014.1hPa Calm     95% 0.00in /  0mm 0 W/m2
06:04 57.8 °F /  14.3 °C 56.4 °F /  13.6 °C 29.95in /  1014.1hPa Calm     95% 0.00in /  0mm 0 W/m2
06:09 57.8 °F /  14.3 °C 56.4 °F /  13.6 °C 29.95in /  1014.1hPa Calm     95% 0.00in /  0mm 0 W/m2
06:14 57.8 °F /  14.3 °C 56.4 °F /  13.6 °C 29.95in /  1014.1hPa Calm     95% 0.00in /  0mm 0 W/m2
06:19 57.8 °F /  14.3 °C 56.4 °F /  13.6 °C 29.95in /  1014.1hPa Calm     95% 0.00in /  0mm 0 W/m2
06:24 57.9 °F /  14.4 °C 56.5 °F /  13.6 °C 29.95in /  1014.1hPa Calm     95% 0.00in /  0mm 0 W/m2
06:29 58 °F /  14.4 °C 56.6 °F /  13.7 °C 29.95in /  1014.1hPa Calm     95% 0.00in /  0mm 0 W/m2
06:34 58.1 °F /  14.5 °C 56.7 °F /  13.7 °C 29.95in /  1014.1hPa Calm     95% 0.00in /  0mm 0 W/m2
06:39 58.1 °F /  14.5 °C 56.7 °F /  13.7 °C 29.95in /  1014.1hPa Calm     95% 0.00in /  0mm 0 W/m2
06:44 58.2 °F /  14.6 °C 56.8 °F /  13.8 °C 29.94in /  1013.8hPa Calm     95% 0.00in /  0mm 0 W/m2
06:49 58.2 °F /  14.6 °C 56.8 °F /  13.8 °C 29.94in /  1013.8hPa Calm     95% 0.00in /  0mm 0 W/m2
06:54 58.2 °F /  14.6 °C 56.8 °F /  13.8 °C 29.94in /  1013.8hPa Calm     95% 0.00in /  0mm 0 W/m2
06:59 58.2 °F /  14.6 °C 56.8 °F /  13.8 °C 29.95in /  1014.1hPa Calm     95% 0.00in /  0mm 0 W/m2
07:04 58.2 °F /  14.6 °C 56.7 °F /  13.7 °C 29.95in /  1014.1hPa Calm     95% 0.00in /  0mm 0 W/m2
07:09 58.1 °F /  14.5 °C 56.7 °F /  13.7 °C 29.95in /  1014.1hPa Calm     95% 0.00in /  0mm 0 W/m2
07:14 58.2 °F /  14.6 °C 56.8 °F /  13.8 °C 29.95in /  1014.1hPa Calm     95% 0.00in /  0mm 0 W/m2
07:19 58.2 °F /  14.6 °C 57.1 °F /  13.9 °C 29.94in /  1013.8hPa Calm     96% 0.00in /  0mm 0 W/m2
07:24 58.2 °F /  14.6 °C 57.1 °F /  13.9 °C 29.94in /  1013.8hPa Calm     96% 0.00in /  0mm 0 W/m2
07:29 58.3 °F /  14.6 °C 57.2 °F /  14 °C 29.94in /  1013.8hPa Calm     96% 0.00in /  0mm 0 W/m2
07:34 58.4 °F /  14.7 °C 57.3 °F /  14.1 °C 29.95in /  1014.1hPa Calm     96% 0.00in /  0mm 0 W/m2
07:39 58.5 °F /  14.7 °C 57.4 °F /  14.1 °C 29.95in /  1014.1hPa Calm     96% 0.00in /  0mm 5 W/m2
07:44 58.6 °F /  14.8 °C 57.4 °F /  14.1 °C 29.95in /  1014.1hPa Calm     96% 0.00in /  0mm 7 W/m2
07:49 58.6 °F /  14.8 °C 57.5 °F /  14.2 °C 29.95in /  1014.1hPa Calm     96% 0.00in /  0mm 7 W/m2
07:54 58.6 °F /  14.8 °C 57.5 °F /  14.2 °C 29.95in /  1014.1hPa Calm     96% 0.00in /  0mm 7 W/m2
07:59 58.7 °F /  14.8 °C 57.6 °F /  14.2 °C 29.95in /  1014.1hPa Calm     96% 0.00in /  0mm 7 W/m2
08:09 58.9 °F /  14.9 °C 57.7 °F /  14.3 °C 29.96in /  1014.4hPa Calm     96% 0.00in /  0mm 9 W/m2
08:14 58.9 °F /  14.9 °C 57.8 °F /  14.3 °C 29.96in /  1014.4hPa Calm     96% 0.00in /  0mm 12 W/m2
08:19 59 °F /  15 °C 57.9 °F /  14.4 °C 29.97in /  1014.8hPa Calm     96% 0.00in /  0mm 9 W/m2
08:24 59.1 °F /  15.1 °C 58 °F /  14.4 °C 29.97in /  1014.8hPa Calm     96% 0.00in /  0mm 9 W/m2
08:29 59.2 °F /  15.1 °C 58 °F /  14.4 °C 29.97in /  1014.8hPa Calm     96% 0.00in /  0mm 9 W/m2
08:34 59.2 °F /  15.1 °C 58.1 °F /  14.5 °C 29.97in /  1014.8hPa Calm     96% 0.00in /  0mm 7 W/m2
08:39 59.3 °F /  15.2 °C 58.2 °F /  14.6 °C 29.97in /  1014.8hPa Calm     96% 0.00in /  0mm 11 W/m2
08:44 59.3 °F /  15.2 °C 58.2 °F /  14.6 °C 29.97in /  1014.8hPa Calm     96% 0.00in /  0mm 14 W/m2
08:49 59.4 °F /  15.2 °C 58.2 °F /  14.6 °C 29.97in /  1014.8hPa Calm     96% 0.00in /  0mm 16 W/m2
08:50 59.4 °F /  15.2 °C 58.3 °F /  14.6 °C 29.97in /  1014.8hPa Calm     96% 0.00in /  0mm 14 W/m2
09:00 59.5 °F /  15.3 °C 58.4 °F /  14.7 °C 29.96in /  1014.4hPa Calm     96% 0.00in /  0mm 15 W/m2
09:30 59.9 °F /  15.5 °C 58.8 °F /  14.9 °C 29.97in /  1014.8hPa Calm   1mph /  1.6km/h 96% 0.00in /  0mm 23 W/m2
10:00 60 °F /  15.6 °C 58.9 °F /  14.9 °C 29.97in /  1014.8hPa Calm     96% 0.00in /  0mm 24 W/m2
10:30 60.2 °F /  15.7 °C 59.1 °F /  15.1 °C 29.97in /  1014.8hPa Calm     96% 0.00in /  0mm 32 W/m2
11:00 60.8 °F /  16 °C 59.7 °F /  15.4 °C 29.96in /  1014.4hPa Calm     96% 0.00in /  0mm 63 W/m2
11:30 61.1 °F /  16.2 °C 60 °F /  15.6 °C 29.96in /  1014.4hPa Calm     96% 0.00in /  0mm 73 W/m2
12:04 61.6 °F /  16.4 °C 60.5 °F /  15.8 °C 29.96in /  1014.4hPa Calm     96% 0.00in /  0mm 123 W/m2
12:09 61.6 °F /  16.4 °C 60.5 °F /  15.8 °C 29.95in /  1014.1hPa Calm     96% 0.00in /  0mm 127 W/m2
12:14 61.6 °F /  16.4 °C 60.5 °F /  15.8 °C 29.95in /  1014.1hPa Calm     96% 0.00in /  0mm 116 W/m2
12:19 61.6 °F /  16.4 °C 60.5 °F /  15.8 °C 29.95in /  1014.1hPa Calm     96% 0.00in /  0mm 128 W/m2
12:24 61.7 °F /  16.5 °C 60.6 °F /  15.9 °C 29.95in /  1014.1hPa Calm     96% 0.00in /  0mm 130 W/m2
12:29 61.9 °F /  16.6 °C 61 °F /  16.1 °C 29.95in /  1014.1hPa Calm     96.8% 0.00in /  0mm 130 W/m2
12:34 62 °F /  16.7 °C 61.1 °F /  16.2 °C 29.95in /  1014.1hPa Calm     97% 0.00in /  0mm 111 W/m2
12:39 62 °F /  16.7 °C 61.1 °F /  16.2 °C 29.95in /  1014.1hPa Calm     97% 0.00in /  0mm 95 W/m2
12:44 62.1 °F /  16.7 °C 61.2 °F /  16.2 °C 29.94in /  1013.8hPa Calm     97% 0.00in /  0mm 95 W/m2
12:49 62.1 °F /  16.7 °C 61 °F /  16.1 °C 29.94in /  1013.8hPa Calm     96% 0.00in /  0mm 113 W/m2
12:54 62.1 °F /  16.7 °C 61 °F /  16.1 °C 29.94in /  1013.8hPa Calm     96% 0.00in /  0mm 109 W/m2
12:59 62.1 °F /  16.7 °C 61 °F /  16.1 °C 29.94in /  1013.8hPa Calm     96% 0.00in /  0mm 84 W/m2
13:04 62.1 °F /  16.7 °C 61 °F /  16.1 °C 29.94in /  1013.8hPa Calm     96% 0.00in /  0mm 84 W/m2
13:09 62.1 °F /  16.7 °C 61 °F /  16.1 °C 29.94in /  1013.8hPa Calm     96% 0.00in /  0mm 91 W/m2
13:14 62.2 °F /  16.8 °C 61 °F /  16.1 °C 29.93in /  1013.4hPa Calm     96% 0.00in /  0mm 123 W/m2
13:19 62.3 °F /  16.8 °C 61.1 °F /  16.2 °C 29.93in /  1013.4hPa Calm     96% 0.00in /  0mm 169 W/m2
13:24 62.3 °F /  16.8 °C 61.2 °F /  16.2 °C 29.93in /  1013.4hPa Calm     96% 0.00in /  0mm 213 W/m2
13:29 62.5 °F /  16.9 °C 61.4 °F /  16.3 °C 29.92in /  1013.1hPa Calm   2mph /  3.2km/h 96.2% 0.00in /  0mm 309 W/m2
13:34 62.9 °F /  17.2 °C 61.9 °F /  16.6 °C 29.92in /  1013.1hPa Calm   2mph /  3.2km/h 96.6% 0.00in /  0mm 378 W/m2
13:39 63.4 °F /  17.4 °C 62.5 °F /  16.9 °C 29.92in /  1013.1hPa Calm     96.9% 0.00in /  0mm 462 W/m2
13:44 63.7 °F /  17.6 °C 62.9 °F /  17.2 °C 29.92in /  1013.1hPa South 0.1mph /  0.2km/h 2mph /  3.2km/h 97% 0.00in /  0mm 352 W/m2
13:49 64.1 °F /  17.8 °C 63.1 °F /  17.3 °C 29.92in /  1013.1hPa Calm   2mph /  3.2km/h 96.4% 0.00in /  0mm 246 W/m2
13:54 64.4 °F /  18 °C 63.2 °F /  17.3 °C 29.92in /  1013.1hPa Calm   2mph /  3.2km/h 96% 0.00in /  0mm 153 W/m2
13:59 64.5 °F /  18.1 °C 63.3 °F /  17.4 °C 29.92in /  1013.1hPa Calm   2mph /  3.2km/h 96% 0.00in /  0mm 156 W/m2
14:04 64.4 °F /  18 °C 63 °F /  17.2 °C 29.92in /  1013.1hPa Calm   2mph /  3.2km/h 95% 0.00in /  0mm 162 W/m2
14:09 64.5 °F /  18.1 °C 62.7 °F /  17.1 °C 29.92in /  1013.1hPa West 0.8mph /  1.3km/h 6mph /  9.7km/h 94% 0.00in /  0mm 162 W/m2
14:14 64.4 °F /  18 °C 62.5 °F /  16.9 °C 29.91in /  1012.8hPa WNW 0.4mph /  0.6km/h 6mph /  9.7km/h 93.4% 0.00in /  0mm 265 W/m2
14:19 64.4 °F /  18 °C 62.4 °F /  16.9 °C 29.91in /  1012.8hPa Calm   6mph /  9.7km/h 93% 0.00in /  0mm 265 W/m2
14:24 64.7 °F /  18.2 °C 62.6 °F /  17 °C 29.91in /  1012.8hPa Calm   6mph /  9.7km/h 92.6% 0.00in /  0mm 209 W/m2
14:29 65.1 °F /  18.4 °C 62.8 °F /  17.1 °C 29.91in /  1012.8hPa WNW 0.3mph /  0.5km/h 6mph /  9.7km/h 92% 0.00in /  0mm 258 W/m2
14:34 65.5 °F /  18.6 °C 63 °F /  17.2 °C 29.91in /  1012.8hPa Calm   6mph /  9.7km/h 91.6% 0.00in /  0mm 220 W/m2
14:39 65.9 °F /  18.8 °C 62.9 °F /  17.2 °C 29.91in /  1012.8hPa WNW 0.4mph /  0.6km/h 4mph /  6.4km/h 90.1% 0.00in /  0mm 174 W/m2
14:44 66.1 °F /  18.9 °C 62.7 °F /  17.1 °C 29.91in /  1012.8hPa WNW 0.2mph /  0.3km/h 4mph /  6.4km/h 88.7% 0.00in /  0mm 148 W/m2
14:49 66.3 °F /  19.1 °C 62.5 °F /  16.9 °C 29.91in /  1012.8hPa WNW 1.2mph /  1.9km/h 4mph /  6.4km/h 87.4% 0.00in /  0mm 153 W/m2
14:54 66.4 °F /  19.1 °C 62.1 °F /  16.7 °C 29.90in /  1012.4hPa WNW 1.9mph /  3.1km/h 6mph /  9.7km/h 86.2% 0.00in /  0mm 169 W/m2
14:59 66.4 °F /  19.1 °C 61.9 °F /  16.6 °C 29.91in /  1012.8hPa WNW 1.6mph /  2.6km/h 7mph /  11.3km/h 85.3% 0.00in /  0mm 207 W/m2
15:04 66.5 °F /  19.2 °C 61.8 °F /  16.6 °C 29.91in /  1012.8hPa WNW 3.4mph /  5.5km/h 9mph /  14.5km/h 84.8% 0.00in /  0mm 207 W/m2
15:09 66.5 °F /  19.2 °C 61.5 °F /  16.4 °C 29.91in /  1012.8hPa WNW 0.3mph /  0.5km/h 8mph /  12.9km/h 84% 0.00in /  0mm 105 W/m2
15:14 66.5 °F /  19.2 °C 61.6 °F /  16.4 °C 29.91in /  1012.8hPa WNW 0.1mph /  0.2km/h 8mph /  12.9km/h 84% 0.00in /  0mm 113 W/m2
15:19 66.6 °F /  19.2 °C 61.9 °F /  16.6 °C 29.91in /  1012.8hPa Calm   8mph /  12.9km/h 84.8% 0.00in /  0mm 137 W/m2
15:24 66.7 °F /  19.3 °C 62 °F /  16.7 °C 29.91in /  1012.8hPa WNW 1.3mph /  2.1km/h 8mph /  12.9km/h 85% 0.00in /  0mm 132 W/m2
15:29 66.7 °F /  19.3 °C 61.7 °F /  16.5 °C 29.91in /  1012.8hPa WNW 2.1mph /  3.4km/h 8mph /  12.9km/h 84% 0.00in /  0mm 91 W/m2
15:34 66.6 °F /  19.2 °C 61.4 °F /  16.3 °C 29.91in /  1012.8hPa NW 1.8mph /  2.9km/h 8mph /  12.9km/h 83.6% 0.00in /  0mm 91 W/m2
15:39 66.5 °F /  19.2 °C 61.5 °F /  16.4 °C 29.91in /  1012.8hPa NW 0.8mph /  1.3km/h 6mph /  9.7km/h 83.9% 0.00in /  0mm 121 W/m2
15:44 66.5 °F /  19.2 °C 61.5 °F /  16.4 °C 29.91in /  1012.8hPa NW 0.9mph /  1.4km/h 6mph /  9.7km/h 84% 0.00in /  0mm 176 W/m2
15:49 66.5 °F /  19.2 °C 61.5 °F /  16.4 °C 29.91in /  1012.8hPa NNW 2.3mph /  3.7km/h 9mph /  14.5km/h 83.7% 0.00in /  0mm 176 W/m2
15:54 66.7 °F /  19.3 °C 61.3 °F /  16.3 °C 29.92in /  1013.1hPa NW 0.3mph /  0.5km/h 9mph /  14.5km/h 82.7% 0.00in /  0mm 132 W/m2
15:59 66.9 °F /  19.4 °C 61.3 °F /  16.3 °C 29.92in /  1013.1hPa WNW 1.9mph /  3.1km/h 9mph /  14.5km/h 82.2% 0.00in /  0mm 127 W/m2
16:04 67.1 °F /  19.5 °C 61.4 °F /  16.3 °C 29.92in /  1013.1hPa WNW 0.5mph /  0.8km/h 2mph /  3.2km/h 82% 0.00in /  0mm 98 W/m2
16:09 67.1 °F /  19.5 °C 61.3 °F /  16.3 °C 29.92in /  1013.1hPa WNW 0.2mph /  0.3km/h 3mph /  4.8km/h 81.7% 0.00in /  0mm 98 W/m2
16:14 67.1 °F /  19.5 °C 61.1 °F /  16.2 °C 29.92in /  1013.1hPa WNW 0.5mph /  0.8km/h 5mph /  8km/h 81.1% 0.00in /  0mm 47 W/m2
16:19 67 °F /  19.4 °C 60.9 °F /  16.1 °C 29.92in /  1013.1hPa WNW 1.1mph /  1.8km/h 5mph /  8km/h 80.7% 0.00in /  0mm 40 W/m2
16:24 66.8 °F /  19.3 °C 60.5 °F /  15.8 °C 29.92in /  1013.1hPa WNW 0.8mph /  1.3km/h 5mph /  8km/h 80% 0.00in /  0mm 33 W/m2
16:29 66.7 °F /  19.3 °C 60.3 °F /  15.7 °C 29.92in /  1013.1hPa WNW 1.5mph /  2.4km/h 6mph /  9.7km/h 80% 0.00in /  0mm 35 W/m2
16:34 66.5 °F /  19.2 °C 60.4 °F /  15.8 °C 29.92in /  1013.1hPa WNW 1.9mph /  3.1km/h 6mph /  9.7km/h 80.8% 0.00in /  0mm 35 W/m2
16:39 66.3 °F /  19.1 °C 60 °F /  15.6 °C 29.93in /  1013.4hPa WNW 2.1mph /  3.4km/h 6mph /  9.7km/h 80% 0.00in /  0mm 37 W/m2
16:44 66.1 °F /  18.9 °C 59.9 °F /  15.5 °C 29.93in /  1013.4hPa WNW 2mph /  3.2km/h 10mph /  16.1km/h 80.3% 0.00in /  0mm 44 W/m2
16:49 66 °F /  18.9 °C 59.8 °F /  15.4 °C 29.93in /  1013.4hPa Calm   10mph /  16.1km/h 80.3% 0.00in /  0mm 51 W/m2
16:54 65.9 °F /  18.8 °C 59.9 °F /  15.5 °C 29.93in /  1013.4hPa Calm   10mph /  16.1km/h 81% 0.00in /  0mm 40 W/m2
16:59 65.8 °F /  18.8 °C 59.8 °F /  15.4 °C 29.93in /  1013.4hPa WNW 0.4mph /  0.6km/h 10mph /  16.1km/h 81% 0.00in /  0mm 33 W/m2
17:04 65.7 °F /  18.7 °C 59.8 °F /  15.4 °C 29.93in /  1013.4hPa Calm   10mph /  16.1km/h 81% 0.00in /  0mm 26 W/m2
17:09 65.6 °F /  18.7 °C 59.7 °F /  15.4 °C 29.93in /  1013.4hPa Calm     81% 0.00in /  0mm 26 W/m2
17:14 65.6 °F /  18.7 °C 59.6 °F /  15.3 °C 29.93in /  1013.4hPa Calm     81% 0.00in /  0mm 19 W/m2
17:19 65.5 °F /  18.6 °C 59.5 °F /  15.3 °C 29.93in /  1013.4hPa Calm     81% 0.00in /  0mm 16 W/m2
17:24 65.4 °F /  18.6 °C 59.8 °F /  15.4 °C 29.93in /  1013.4hPa Calm     82% 0.00in /  0mm 14 W/m2
17:29 65.3 °F /  18.5 °C 59.7 °F /  15.4 °C 29.93in /  1013.4hPa Calm     82% 0.00in /  0mm 11 W/m2
17:34 65.2 °F /  18.4 °C 59.6 °F /  15.3 °C 29.93in /  1013.4hPa Calm     82% 0.00in /  0mm 7 W/m2
17:39 65.1 °F /  18.4 °C 59.4 °F /  15.2 °C 29.94in /  1013.8hPa Calm     82% 0.00in /  0mm 5 W/m2
17:44 64.9 °F /  18.3 °C 59.2 °F /  15.1 °C 29.94in /  1013.8hPa Calm     82% 0.00in /  0mm 5 W/m2
17:49 64.7 °F /  18.2 °C 59.1 °F /  15.1 °C 29.94in /  1013.8hPa Calm     82% 0.00in /  0mm 5 W/m2
17:54 64.5 °F /  18.1 °C 58.8 °F /  14.9 °C 29.94in /  1013.8hPa Calm     82% 0.00in /  0mm 0 W/m2
17:59 64.2 °F /  17.9 °C 58.9 °F /  14.9 °C 29.95in /  1014.1hPa Calm     82.8% 0.00in /  0mm 0 W/m2
18:04 64 °F /  17.8 °C 58.8 °F /  14.9 °C 29.95in /  1014.1hPa Calm     83% 0.00in /  0mm 0 W/m2
18:09 63.8 °F /  17.7 °C 58.5 °F /  14.7 °C 29.95in /  1014.1hPa Calm     83% 0.00in /  0mm 0 W/m2
18:14 63.6 °F /  17.6 °C 58.4 °F /  14.7 °C 29.95in /  1014.1hPa Calm     83.3% 0.00in /  0mm 0 W/m2
18:19 63.4 °F /  17.4 °C 58.4 °F /  14.7 °C 29.95in /  1014.1hPa Calm     84% 0.00in /  0mm 0 W/m2
18:24 63.2 °F /  17.3 °C 58.3 °F /  14.6 °C 29.95in /  1014.1hPa Calm     84% 0.00in /  0mm 0 W/m2
18:29 63 °F /  17.2 °C 58.3 °F /  14.6 °C 29.95in /  1014.1hPa Calm     84.3% 0.00in /  0mm 0 W/m2
18:34 62.9 °F /  17.2 °C 58.3 °F /  14.6 °C 29.96in /  1014.4hPa Calm     85% 0.00in /  0mm 0 W/m2
18:39 62.8 °F /  17.1 °C 58.2 °F /  14.6 °C 29.96in /  1014.4hPa Calm     85% 0.00in /  0mm 0 W/m2
18:44 62.7 °F /  17.1 °C 58.1 °F /  14.5 °C 29.97in /  1014.8hPa Calm     85% 0.00in /  0mm 0 W/m2
18:49 62.6 °F /  17 °C 58.1 °F /  14.5 °C 29.97in /  1014.8hPa Calm     85% 0.00in /  0mm 0 W/m2
18:54 62.6 °F /  17 °C 58 °F /  14.4 °C 29.97in /  1014.8hPa Calm     85% 0.00in /  0mm 0 W/m2
18:59 62.4 °F /  16.9 °C 57.9 °F /  14.4 °C 29.97in /  1014.8hPa Calm     85% 0.00in /  0mm 0 W/m2
19:04 62.3 °F /  16.8 °C 57.7 °F /  14.3 °C 29.97in /  1014.8hPa Calm     85% 0.00in /  0mm 0 W/m2
19:09 62.2 °F /  16.8 °C 57.8 °F /  14.3 °C 29.97in /  1014.8hPa Calm     85.4% 0.00in /  0mm 0 W/m2
19:14 62 °F /  16.7 °C 57.8 °F /  14.3 °C 29.97in /  1014.8hPa Calm     86% 0.00in /  0mm 0 W/m2
19:19 61.8 °F /  16.6 °C 57.6 °F /  14.2 °C 29.98in /  1015.1hPa Calm     86% 0.00in /  0mm 0 W/m2
19:24 61.6 °F /  16.4 °C 57.4 °F /  14.1 °C 29.97in /  1014.8hPa Calm     86% 0.00in /  0mm 0 W/m2
19:29 61.4 °F /  16.3 °C 57.2 °F /  14 °C 29.98in /  1015.1hPa Calm     86% 0.00in /  0mm 0 W/m2
19:34 61.2 °F /  16.2 °C 57.3 °F /  14.1 °C 29.98in /  1015.1hPa Calm     86.9% 0.00in /  0mm 0 W/m2
19:39 61 °F /  16.1 °C 57.1 °F /  13.9 °C 29.98in /  1015.1hPa Calm     87% 0.00in /  0mm 0 W/m2
19:44 60.8 °F /  16 °C 56.9 °F /  13.8 °C 29.98in /  1015.1hPa Calm     87% 0.00in /  0mm 0 W/m2
19:49 60.5 °F /  15.8 °C 56.6 °F /  13.7 °C 29.98in /  1015.1hPa Calm     87% 0.00in /  0mm 0 W/m2
19:54 60.3 °F /  15.7 °C 56.5 °F /  13.6 °C 29.98in /  1015.1hPa Calm     87.3% 0.00in /  0mm 0 W/m2
19:59 60 °F /  15.6 °C 56.5 °F /  13.6 °C 29.98in /  1015.1hPa Calm     88% 0.00in /  0mm 0 W/m2
20:09 59.6 °F /  15.3 °C 56.4 °F /  13.6 °C 29.98in /  1015.1hPa Calm     89% 0.00in /  0mm 0 W/m2
20:14 59.6 °F /  15.3 °C 56.4 °F /  13.6 °C 29.99in /  1015.5hPa Calm     89% 0.00in /  0mm 0 W/m2
20:19 59.6 °F /  15.3 °C 56.6 °F /  13.7 °C 29.99in /  1015.5hPa Calm     89.8% 0.00in /  0mm 0 W/m2
20:24 59.6 °F /  15.3 °C 56.7 °F /  13.7 °C 29.99in /  1015.5hPa Calm     90% 0.00in /  0mm 0 W/m2
20:29 59.7 °F /  15.4 °C 56.9 °F /  13.8 °C 29.99in /  1015.5hPa Calm     90.6% 0.00in /  0mm 0 W/m2
20:34 59.8 °F /  15.4 °C 57.2 °F /  14 °C 29.99in /  1015.5hPa Calm     91% 0.00in /  0mm 0 W/m2
20:39 59.9 °F /  15.5 °C 57.3 °F /  14.1 °C 29.99in /  1015.5hPa Calm     91% 0.00in /  0mm 0 W/m2
20:44 60 °F /  15.6 °C 57.4 °F /  14.1 °C 30.00in /  1015.8hPa Calm     91% 0.00in /  0mm 0 W/m2
20:49 60 °F /  15.6 °C 57.4 °F /  14.1 °C 30.00in /  1015.8hPa Calm     91% 0.00in /  0mm 0 W/m2
20:54 60 °F /  15.6 °C 57.4 °F /  14.1 °C 30.00in /  1015.8hPa Calm     91% 0.00in /  0mm 0 W/m2
20:59 59.9 °F /  15.5 °C 57.1 °F /  13.9 °C 30.00in /  1015.8hPa Calm     90.6% 0.00in /  0mm 0 W/m2
21:04 59.8 °F /  15.4 °C 57.1 °F /  13.9 °C 30.00in /  1015.8hPa Calm     90.9% 0.00in /  0mm 0 W/m2
21:09 59.7 °F /  15.4 °C 57 °F /  13.9 °C 30.00in /  1015.8hPa Calm     91% 0.00in /  0mm 0 W/m2
21:30 59.3 °F /  15.2 °C 56.7 °F /  13.7 °C 30.00in /  1015.8hPa Calm     91% 0.00in /  0mm 0 W/m2
22:00 58 °F /  14.4 °C 55.4 °F /  13 °C 30.01in /  1016.1hPa Calm   2mph /  3.2km/h 91% 0.00in /  0mm 0 W/m2
22:30 57.4 °F /  14.1 °C 55.1 °F /  12.8 °C 30.00in /  1015.8hPa Calm   4mph /  6.4km/h 92% 0.00in /  0mm 0 W/m2
23:00 57.8 °F /  14.3 °C 55.8 °F /  13.2 °C 30.01in /  1016.1hPa WNW 1mph /  1.6km/h 11mph /  17.7km/h 93% 0.00in /  0mm 0 W/m2
23:30 59.6 °F /  15.3 °C 56.4 °F /  13.6 °C 30.01in /  1016.1hPa NW 1mph /  1.6km/h 11mph /  17.7km/h 89% 0.00in /  0mm 0 W/m2
Hartford County Weather
Compliments of Weather Underground - 4 mb